createdAt,value
2023-01-19T01:24:01.837Z,36.45
2023-01-19T01:26:31.074Z,33.38
2023-01-19T01:29:00.150Z,34.03
2023-01-19T01:31:29.330Z,35.78
2023-01-19T01:33:58.486Z,32.85
2023-01-19T01:36:31.909Z,37.08
2023-01-19T01:39:02.351Z,27.15
2023-01-19T01:41:31.419Z,29.40
2023-01-19T01:44:02.162Z,28.73
2023-01-19T01:46:32.645Z,32.80
2023-01-19T01:49:06.887Z,38.65
2023-01-19T01:51:41.846Z,42.45
2023-01-19T01:54:17.781Z,37.80
2023-01-19T01:56:49.895Z,35.25
2023-01-19T01:59:27.099Z,32.40
2023-01-19T02:02:16.476Z,40.20
2023-01-19T02:04:50.983Z,39.83
2023-01-19T02:07:45.252Z,34.85
2023-01-19T02:13:21.725Z,29.13
2023-01-19T02:15:53.180Z,35.33
2023-01-19T02:18:25.143Z,32.42
2023-01-19T02:21:02.237Z,30.63
2023-01-19T02:23:40.938Z,35.80
2023-01-19T02:26:12.372Z,34.15
2023-01-19T02:28:45.139Z,35.83
2023-01-19T02:31:15.262Z,34.30
2023-01-19T02:33:44.355Z,28.10
2023-01-19T02:36:16.463Z,29.73
2023-01-19T02:38:53.981Z,32.80
2023-01-19T02:41:27.839Z,29.73
2023-01-19T02:43:58.741Z,39.42
2023-01-19T02:46:28.013Z,31.30
2023-01-19T02:49:00.447Z,32.08
2023-01-19T02:54:53.529Z,35.45
2023-01-19T02:57:43.781Z,30.15
2023-01-19T03:00:24.656Z,38.10
2023-01-19T03:03:10.674Z,33.63
2023-01-19T03:05:53.245Z,37.92
2023-01-19T03:08:34.327Z,30.65
2023-01-19T03:11:08.259Z,31.70
2023-01-19T03:16:21.869Z,25.15
2023-01-19T03:18:55.091Z,34.53
2023-01-19T03:21:28.018Z,35.63
2023-01-19T03:24:03.169Z,28.05
2023-01-19T03:26:38.813Z,30.27
2023-01-19T03:29:09.962Z,33.95
2023-01-19T03:31:41.699Z,30.42
2023-01-19T03:34:15.000Z,26.08
2023-01-19T03:36:47.377Z,27.88
2023-01-19T03:39:23.089Z,29.98
2023-01-19T03:41:56.297Z,30.70
2023-01-19T03:44:27.259Z,27.15
2023-01-19T03:46:57.931Z,27.05
2023-01-19T03:49:27.522Z,37.30
2023-01-19T03:51:59.029Z,32.13
2023-01-19T03:54:28.923Z,31.75
2023-01-19T03:57:00.051Z,26.90
2023-01-19T03:59:31.210Z,33.47
2023-01-19T04:02:00.639Z,31.52
2023-01-19T04:04:30.084Z,23.88
2023-01-19T04:06:59.251Z,32.05
2023-01-19T04:09:28.422Z,26.48
2023-01-19T04:11:57.709Z,36.80
2023-01-19T04:14:29.459Z,36.85
2023-01-19T04:16:58.543Z,27.85
2023-01-19T04:19:27.557Z,28.20
2023-01-19T04:21:57.079Z,30.77
2023-01-19T04:24:26.549Z,31.33
2023-01-19T04:26:56.017Z,29.63
2023-01-19T04:29:25.555Z,27.88
2023-01-19T04:31:55.842Z,30.42
2023-01-19T04:34:24.833Z,33.63
2023-01-19T04:36:56.048Z,28.33
2023-01-19T04:39:25.464Z,26.15
2023-01-19T04:41:56.318Z,30.38
2023-01-19T04:44:25.492Z,27.00
2023-01-19T04:46:56.100Z,33.42
2023-01-19T04:49:25.162Z,29.80
2023-01-19T04:51:54.991Z,31.55
2023-01-19T04:54:24.148Z,30.98
2023-01-19T04:56:53.378Z,33.05
2023-01-19T04:59:22.411Z,28.63
2023-01-19T05:01:52.037Z,28.35
2023-01-19T05:04:22.603Z,27.33
2023-01-19T05:06:51.956Z,28.58
2023-01-19T05:09:21.021Z,33.65
2023-01-19T05:11:50.092Z,25.52
2023-01-19T05:14:19.435Z,29.10
2023-01-19T05:16:50.133Z,30.05
2023-01-19T05:19:23.973Z,29.98
2023-01-19T05:22:15.233Z,28.42
2023-01-19T05:24:57.006Z,31.35
2023-01-19T05:27:26.372Z,28.23
2023-01-19T05:29:55.312Z,26.13
2023-01-19T05:32:24.475Z,29.02
2023-01-19T05:34:56.481Z,30.67
2023-01-19T05:37:26.656Z,24.25
2023-01-19T05:39:56.451Z,27.30
2023-01-19T05:42:26.423Z,32.67
2023-01-19T05:44:58.443Z,35.60
2023-01-19T05:47:32.069Z,34.22
2023-01-19T05:50:02.848Z,79.07
2023-01-19T05:52:33.737Z,47.95
2023-01-19T05:55:03.002Z,47.85
2023-01-19T05:57:32.524Z,35.40
2023-01-19T06:00:05.113Z,29.85
2023-01-19T06:03:15.317Z,35.92
2023-01-19T06:05:46.405Z,42.13
2023-01-19T06:08:17.417Z,42.97
2023-01-19T06:10:46.673Z,35.55
2023-01-19T06:13:21.858Z,41.67
2023-01-19T06:16:08.419Z,37.28
2023-01-19T06:18:37.725Z,39.00
2023-01-19T06:21:12.456Z,38.50
2023-01-19T06:23:43.860Z,30.50
2023-01-19T06:26:16.685Z,36.05
2023-01-19T06:28:46.280Z,36.03
2023-01-19T06:31:18.756Z,43.28
2023-01-19T06:33:47.837Z,41.75
2023-01-19T06:36:18.349Z,43.35
2023-01-19T06:38:47.571Z,61.45
2023-01-19T06:41:17.079Z,50.03
2023-01-19T06:43:46.126Z,114.82
2023-01-19T06:46:15.413Z,79.55
2023-01-19T06:48:46.906Z,64.25
2023-01-19T06:51:17.659Z,86.25
2023-01-19T06:53:47.080Z,74.97
2023-01-19T06:56:19.450Z,52.83
2023-01-19T06:58:50.679Z,47.50
2023-01-19T07:01:20.451Z,40.90
2023-01-19T07:03:49.984Z,45.72
2023-01-19T07:06:23.760Z,41.50
2023-01-19T07:11:32.291Z,42.78
2023-01-19T07:14:03.585Z,60.70
2023-01-19T07:16:35.632Z,43.45
2023-01-19T07:19:05.471Z,52.08
2023-01-19T07:21:39.170Z,45.95
2023-01-19T07:24:08.813Z,50.63
2023-01-19T10:15:57.669Z,25.77
2023-01-19T10:18:34.669Z,24.38
2023-01-19T10:21:11.463Z,25.33
2023-01-19T10:23:44.405Z,26.77
2023-01-19T10:26:18.179Z,25.50
2023-01-19T10:28:50.743Z,26.98
2023-01-19T10:31:25.145Z,29.42
2023-01-19T10:33:54.754Z,25.40
2023-01-19T10:36:30.109Z,26.75
2023-01-19T10:38:59.681Z,30.35
2023-01-19T10:41:37.614Z,29.95
2023-01-19T10:44:09.735Z,29.67
2023-01-19T10:46:45.110Z,29.33
2023-01-19T10:49:28.120Z,25.17
2023-01-19T10:52:00.867Z,23.27
2023-01-19T10:54:32.708Z,27.23
2023-01-19T10:57:05.092Z,28.80
2023-01-19T10:59:37.521Z,24.75
2023-01-19T11:02:27.172Z,27.23
2023-01-19T11:04:58.881Z,26.17
2023-01-19T11:07:32.608Z,30.85
2023-01-19T11:13:02.423Z,31.20
2023-01-19T11:15:35.759Z,37.38
2023-01-19T11:18:08.001Z,39.60
2023-01-19T11:20:49.437Z,34.40
2023-01-19T11:23:26.103Z,33.13
2023-01-19T11:25:58.755Z,34.85
2023-01-19T11:28:31.519Z,35.55
2023-01-19T11:31:03.285Z,34.80
2023-01-19T11:33:39.035Z,44.40
2023-01-19T11:36:29.216Z,38.03
2023-01-19T11:39:00.890Z,35.60
2023-01-19T11:41:32.842Z,44.38
2023-01-19T11:44:11.247Z,40.60
2023-01-19T11:46:45.567Z,43.58
2023-01-19T11:49:23.522Z,39.28
2023-01-19T11:52:01.076Z,36.08
2023-01-19T11:54:37.121Z,40.15
2023-01-19T11:57:15.429Z,42.17
2023-01-19T11:59:55.073Z,42.38
2023-01-19T12:02:29.443Z,33.80
2023-01-19T12:05:06.168Z,42.25
2023-01-19T12:07:37.848Z,48.60
2023-01-19T12:10:22.178Z,39.13
2023-01-19T12:12:53.509Z,38.60
2023-01-19T12:15:28.044Z,41.95
2023-01-19T12:18:02.168Z,43.65
2023-01-19T12:20:38.504Z,41.78
2023-01-19T12:23:19.719Z,43.95
2023-01-19T12:26:02.858Z,44.63
2023-01-19T12:28:36.428Z,41.20
2023-01-19T12:31:06.605Z,34.53
2023-01-19T12:33:38.462Z,43.22
2023-01-19T12:36:14.369Z,48.38
2023-01-19T12:38:55.454Z,46.90
2023-01-19T12:41:31.480Z,37.42
2023-01-19T12:44:22.990Z,37.47
2023-01-19T12:46:55.107Z,44.92
2023-01-19T12:49:28.590Z,49.40
2023-01-19T12:52:25.383Z,40.97
2023-01-19T12:55:03.940Z,39.28
2023-01-19T12:57:36.454Z,42.50
2023-01-19T13:00:09.013Z,40.05
2023-01-19T13:02:48.162Z,41.63
2023-01-19T13:05:27.739Z,43.45
2023-01-19T13:08:21.302Z,38.60
2023-01-19T13:11:16.012Z,42.80
2023-01-19T13:14:07.323Z,46.95
2023-01-19T13:17:20.978Z,46.08
2023-01-19T13:19:58.730Z,43.17
2023-01-19T13:22:51.664Z,47.50
2023-01-19T13:25:31.285Z,50.40
2023-01-19T13:28:01.299Z,43.17
2023-01-19T13:30:31.581Z,43.70
2023-01-19T13:33:08.116Z,38.53
2023-01-19T13:35:37.628Z,36.22
2023-01-19T13:38:08.628Z,40.22
2023-01-19T13:40:40.029Z,46.50
2023-01-19T13:43:19.102Z,43.33
2023-01-19T13:45:53.455Z,52.95
2023-01-19T13:48:25.343Z,45.85
2023-01-19T13:51:02.422Z,51.20
2023-01-19T13:53:31.816Z,52.45
2023-01-19T13:56:10.923Z,51.97
2023-01-19T13:58:40.279Z,53.90
2023-01-19T14:01:22.026Z,33.67
2023-01-19T14:03:52.588Z,51.65
2023-01-19T14:06:34.209Z,43.67
2023-01-19T14:09:17.018Z,44.33
2023-01-19T14:12:05.365Z,50.08
2023-01-19T14:14:34.722Z,47.03
2023-01-19T14:17:04.159Z,38.80
2023-01-19T14:19:51.354Z,47.83
2023-01-19T14:22:21.128Z,39.33
2023-01-19T14:24:50.587Z,38.33
2023-01-19T14:27:24.409Z,32.65
2023-01-19T14:29:54.988Z,42.92
2023-01-19T14:32:27.982Z,38.38
2023-01-19T14:35:16.475Z,51.40
2023-01-19T14:37:52.071Z,40.53
2023-01-19T14:40:24.565Z,47.67
2023-01-19T14:42:57.680Z,52.25
2023-01-19T14:45:31.558Z,46.58
2023-01-19T14:48:03.931Z,44.20
2023-01-19T14:50:36.719Z,46.50
2023-01-19T14:53:08.634Z,44.40
2023-01-19T14:55:45.600Z,48.72
2023-01-19T14:58:18.382Z,53.05
2023-01-19T15:00:50.333Z,38.20
2023-01-19T15:03:20.304Z,42.53
2023-01-19T15:05:51.713Z,44.75
2023-01-19T15:08:26.558Z,34.90
2023-01-19T15:10:56.317Z,40.22
2023-01-19T15:13:28.567Z,46.35
2023-01-19T15:15:58.611Z,33.60
2023-01-19T15:18:28.882Z,38.88
2023-01-19T15:21:02.813Z,37.53
2023-01-19T15:23:32.591Z,42.65
2023-01-19T15:26:03.368Z,43.47
2023-01-19T15:28:34.264Z,44.38
2023-01-19T15:31:04.919Z,38.33
2023-01-19T15:33:34.772Z,42.63
2023-01-19T15:36:05.558Z,45.08
2023-01-19T15:38:34.929Z,38.13
2023-01-19T15:41:15.195Z,45.75
2023-01-19T15:43:46.328Z,63.85
2023-01-19T15:46:16.999Z,44.83
2023-01-19T15:48:46.780Z,52.20
2023-01-19T15:51:18.553Z,42.65
2023-01-19T15:53:51.168Z,58.95
2023-01-19T15:56:23.496Z,40.65
2023-01-19T17:29:28.571Z,36.92
2023-01-19T17:31:57.872Z,36.53
2023-01-19T17:34:27.071Z,31.98
2023-01-19T17:37:02.854Z,38.28
2023-01-19T17:39:32.076Z,41.38
2023-01-19T17:42:01.568Z,35.60
2023-01-19T17:44:32.246Z,33.35
2023-01-19T17:47:01.969Z,36.13
2023-01-19T17:49:31.632Z,43.30
2023-01-19T17:52:01.236Z,32.00
2023-01-19T17:54:30.938Z,38.85
2023-01-19T17:57:00.565Z,38.53
2023-01-19T17:59:32.753Z,40.05
2023-01-19T18:02:02.473Z,37.65
2023-01-19T18:04:32.324Z,37.20
2023-01-19T18:07:01.437Z,38.35
2023-01-19T18:09:31.644Z,39.03
2023-01-19T18:12:01.150Z,38.38
2023-01-19T18:14:31.846Z,38.40
2023-01-19T18:17:01.307Z,25.58
2023-01-19T18:19:30.761Z,37.55
2023-01-19T18:22:00.542Z,31.30
2023-01-19T18:24:29.939Z,35.15
2023-01-19T18:26:59.863Z,58.08
2023-01-19T18:29:29.406Z,31.10
2023-01-19T18:32:00.287Z,31.77
2023-01-19T18:34:29.521Z,29.10
2023-01-19T18:36:58.666Z,39.67
2023-01-19T18:39:27.937Z,29.70
2023-01-19T18:41:57.775Z,39.58
2023-01-19T18:44:27.458Z,35.08
2023-01-19T18:46:57.030Z,35.42
2023-01-19T18:49:27.941Z,39.22
2023-01-19T18:51:57.445Z,36.92
2023-01-19T18:54:27.179Z,30.02
2023-01-19T18:56:56.576Z,37.80
2023-01-19T18:59:25.993Z,45.92
2023-01-19T19:01:55.482Z,33.20
2023-01-19T19:04:25.152Z,31.85
2023-01-19T19:06:56.378Z,32.58
2023-01-19T19:09:26.000Z,35.97
2023-01-19T19:11:55.652Z,32.92
2023-01-19T19:14:24.920Z,54.95
2023-01-19T19:16:54.986Z,47.75
2023-01-19T19:19:24.835Z,33.45
2023-01-19T19:21:56.874Z,30.45
2023-01-19T19:24:26.491Z,38.00
2023-01-19T19:26:56.624Z,42.33
2023-01-19T19:29:26.394Z,31.42
2023-01-19T19:31:56.665Z,43.05
2023-01-19T19:34:26.310Z,40.88
2023-01-19T19:36:57.179Z,31.42
2023-01-19T19:39:26.457Z,38.90
2023-01-19T19:41:56.160Z,35.33
2023-01-19T19:44:25.803Z,35.90
2023-01-19T19:46:58.301Z,51.30
2023-01-19T19:49:28.442Z,33.08
2023-01-19T19:51:59.168Z,58.85
2023-01-19T19:54:28.707Z,45.55
2023-01-19T19:56:58.158Z,38.15
2023-01-19T19:59:27.648Z,28.98
2023-01-19T20:01:57.310Z,34.30
2023-01-19T20:04:28.223Z,38.80
2023-01-19T20:07:00.325Z,36.08
2023-01-19T20:09:30.475Z,35.53
2023-01-19T20:11:59.988Z,28.27
2023-01-19T20:14:29.779Z,42.28
2023-01-19T20:16:59.352Z,44.80
2023-01-19T20:19:29.763Z,40.42
2023-01-19T20:22:02.415Z,33.72
2023-01-19T20:24:31.507Z,39.67
2023-01-19T20:27:00.618Z,26.98
2023-01-19T20:29:30.715Z,40.17
2023-01-19T20:32:00.338Z,35.67
2023-01-19T20:34:33.392Z,38.85
2023-01-19T20:37:06.386Z,32.35
2023-01-19T20:39:37.467Z,31.70
2023-01-19T20:42:11.486Z,37.33
2023-01-19T20:44:41.461Z,33.17
2023-01-19T20:47:11.394Z,40.40
2023-01-19T20:49:40.781Z,41.33
2023-01-19T20:52:11.530Z,37.03
2023-01-19T20:54:41.947Z,31.63
2023-01-19T20:57:11.344Z,38.88
2023-01-19T20:59:41.464Z,37.55
2023-01-19T21:02:15.089Z,34.33
2023-01-19T21:04:45.010Z,31.67
2023-01-19T21:07:15.937Z,35.58
2023-01-19T21:09:46.235Z,39.85
2023-01-19T21:12:16.101Z,35.30
2023-01-19T21:14:46.053Z,53.17
2023-01-19T21:17:15.632Z,35.65
2023-01-19T21:19:45.355Z,35.80
2023-01-19T21:22:16.208Z,31.33
2023-01-19T21:24:45.676Z,28.77
2023-01-19T21:27:14.900Z,25.75
2023-01-19T21:29:43.971Z,26.73
2023-01-19T21:32:13.493Z,37.60
2023-01-19T21:34:45.257Z,31.05
2023-01-19T21:37:16.401Z,36.08
2023-01-19T21:39:46.386Z,34.40
2023-01-19T21:42:15.526Z,29.48
2023-01-19T21:44:44.632Z,36.17
2023-01-19T21:47:13.747Z,39.08
2023-01-19T21:49:43.449Z,36.75
2023-01-19T21:52:13.001Z,35.70
2023-01-19T21:54:43.710Z,31.83
2023-01-19T21:57:15.224Z,22.33
2023-01-19T21:59:44.473Z,22.52
2023-01-19T22:02:14.593Z,33.40
2023-01-19T22:04:44.230Z,32.72
2023-01-19T22:07:13.465Z,41.05
2023-01-19T22:09:44.387Z,25.73
2023-01-19T22:12:13.865Z,27.55
2023-01-19T22:14:43.013Z,33.83
2023-01-19T22:17:12.103Z,33.13
2023-01-19T22:19:41.403Z,31.30
2023-01-19T22:22:10.515Z,28.95
2023-01-19T22:24:39.984Z,30.35
2023-01-19T22:27:10.702Z,28.40
2023-01-19T22:29:39.806Z,25.92
2023-01-19T22:32:09.298Z,34.17
2023-01-19T22:34:38.772Z,26.55
2023-01-19T22:37:08.469Z,31.52
2023-01-19T22:39:38.321Z,29.02
2023-01-19T22:42:08.086Z,30.88
2023-01-19T22:44:38.602Z,28.10
2023-01-19T22:47:07.670Z,32.17
2023-01-19T22:49:36.981Z,29.88
2023-01-19T22:52:06.520Z,30.63
2023-01-19T22:54:35.977Z,31.85
2023-01-19T22:57:07.052Z,31.20
2023-01-19T22:59:36.250Z,37.28
2023-01-19T23:02:06.913Z,35.30
2023-01-19T23:04:36.310Z,37.65
2023-01-19T23:07:05.449Z,40.38
2023-01-19T23:09:35.371Z,30.52
2023-01-19T23:12:04.896Z,35.90
2023-01-19T23:14:33.941Z,36.08
2023-01-19T23:17:03.132Z,35.80
2023-01-19T23:19:33.674Z,35.30
2023-01-19T23:22:02.866Z,35.88
2023-01-19T23:24:32.169Z,31.05
2023-01-19T23:27:02.511Z,32.30
2023-01-19T23:29:31.691Z,31.83
2023-01-19T23:32:01.086Z,38.08
2023-01-19T23:34:30.166Z,35.38
2023-01-19T23:37:00.726Z,34.97
2023-01-19T23:39:30.137Z,37.10
2023-01-19T23:41:59.076Z,33.30
2023-01-19T23:44:28.149Z,37.85
2023-01-19T23:46:58.011Z,38.45
2023-01-19T23:49:27.672Z,37.35
2023-01-19T23:51:56.852Z,32.47
2023-01-19T23:54:27.262Z,32.15
2023-01-19T23:56:56.617Z,37.08
2023-01-19T23:59:25.790Z,35.78
